sensor_id;sensor_type;location;lat;lon;timestamp;temperature;humidity
8953;DHT22;4511;50.890;8.054;2022-11-20T00:00:38;2.30;99.90
8953;DHT22;4511;50.890;8.054;2022-11-20T00:03:07;2.30;99.90
8953;DHT22;4511;50.890;8.054;2022-11-20T00:05:33;2.30;99.90
8953;DHT22;4511;50.890;8.054;2022-11-20T00:08:00;2.30;99.90
8953;DHT22;4511;50.890;8.054;2022-11-20T00:10:27;2.30;99.90
8953;DHT22;4511;50.890;8.054;2022-11-20T00:12:54;2.40;99.90
8953;DHT22;4511;50.890;8.054;2022-11-20T00:15:21;2.40;99.90
8953;DHT22;4511;50.890;8.054;2022-11-20T00:17:49;2.50;99.90
8953;DHT22;4511;50.890;8.054;2022-11-20T00:20:17;2.40;99.90
8953;DHT22;4511;50.890;8.054;2022-11-20T00:22:44;2.40;99.90
8953;DHT22;4511;50.890;8.054;2022-11-20T00:25:11;2.40;99.90
8953;DHT22;4511;50.890;8.054;2022-11-20T00:27:38;2.50;99.90
8953;DHT22;4511;50.890;8.054;2022-11-20T00:30:06;2.50;99.90
8953;DHT22;4511;50.890;8.054;2022-11-20T00:32:33;2.60;99.90
8953;DHT22;4511;50.890;8.054;2022-11-20T00:35:00;2.60;99.90
8953;DHT22;4511;50.890;8.054;2022-11-20T00:37:29;2.60;99.90
8953;DHT22;4511;50.890;8.054;2022-11-20T00:39:56;2.50;99.90
8953;DHT22;4511;50.890;8.054;2022-11-20T00:42:23;2.60;99.90
8953;DHT22;4511;50.890;8.054;2022-11-20T00:44:49;2.60;99.90
8953;DHT22;4511;50.890;8.054;2022-11-20T00:47:17;2.60;99.90
8953;DHT22;4511;50.890;8.054;2022-11-20T00:49:44;2.60;99.90
8953;DHT22;4511;50.890;8.054;2022-11-20T00:52:10;2.50;99.90
8953;DHT22;4511;50.890;8.054;2022-11-20T00:54:40;2.40;99.90
8953;DHT22;4511;50.890;8.054;2022-11-20T00:57:06;2.40;99.90
8953;DHT22;4511;50.890;8.054;2022-11-20T00:59:33;2.40;99.90
8953;DHT22;4511;50.890;8.054;2022-11-20T01:02:00;2.40;99.90
8953;DHT22;4511;50.890;8.054;2022-11-20T01:04:28;2.40;99.90
8953;DHT22;4511;50.890;8.054;2022-11-20T01:06:55;2.40;99.90
8953;DHT22;4511;50.890;8.054;2022-11-20T01:09:22;2.40;99.90
8953;DHT22;4511;50.890;8.054;2022-11-20T01:11:50;2.30;99.90
8953;DHT22;4511;50.890;8.054;2022-11-20T01:14:19;2.20;99.90
8953;DHT22;4511;50.890;8.054;2022-11-20T01:16:47;2.30;99.90
8953;DHT22;4511;50.890;8.054;2022-11-20T01:19:18;2.40;99.90
8953;DHT22;4511;50.890;8.054;2022-11-20T01:21:48;2.30;99.90
8953;DHT22;4511;50.890;8.054;2022-11-20T01:24:16;2.30;99.90
8953;DHT22;4511;50.890;8.054;2022-11-20T01:26:44;2.40;99.90
8953;DHT22;4511;50.890;8.054;2022-11-20T01:29:16;2.40;99.90
8953;DHT22;4511;50.890;8.054;2022-11-20T01:31:43;2.40;99.90
8953;DHT22;4511;50.890;8.054;2022-11-20T01:34:12;2.60;99.90
8953;DHT22;4511;50.890;8.054;2022-11-20T01:36:40;2.60;99.90
8953;DHT22;4511;50.890;8.054;2022-11-20T01:39:13;2.60;99.90
8953;DHT22;4511;50.890;8.054;2022-11-20T01:41:40;2.60;99.90
8953;DHT22;4511;50.890;8.054;2022-11-20T01:44:45;2.60;99.90
8953;DHT22;4511;50.890;8.054;2022-11-20T01:47:14;2.70;99.90
8953;DHT22;4511;50.890;8.054;2022-11-20T01:49:48;2.70;99.90
8953;DHT22;4511;50.890;8.054;2022-11-20T01:52:20;2.70;99.90
8953;DHT22;4511;50.890;8.054;2022-11-20T01:54:52;2.70;99.90
8953;DHT22;4511;50.890;8.054;2022-11-20T01:57:23;2.70;99.90
8953;DHT22;4511;50.890;8.054;2022-11-20T01:59:57;2.70;99.90
8953;DHT22;4511;50.890;8.054;2022-11-20T02:02:27;2.70;99.90
8953;DHT22;4511;50.890;8.054;2022-11-20T02:04:56;2.60;99.90
8953;DHT22;4511;50.890;8.054;2022-11-20T02:07:25;2.60;99.90
8953;DHT22;4511;50.890;8.054;2022-11-20T02:09:52;2.60;99.90
8953;DHT22;4511;50.890;8.054;2022-11-20T02:12:18;2.70;99.90
8953;DHT22;4511;50.890;8.054;2022-11-20T02:15:05;2.70;99.90
8953;DHT22;4511;50.890;8.054;2022-11-20T02:17:32;2.70;99.90
8953;DHT22;4511;50.890;8.054;2022-11-20T02:19:59;2.80;99.90
8953;DHT22;4511;50.890;8.054;2022-11-20T02:22:30;2.80;99.90
8953;DHT22;4511;50.890;8.054;2022-11-20T02:25:00;2.80;99.90
8953;DHT22;4511;50.890;8.054;2022-11-20T02:27:28;2.80;99.90
8953;DHT22;4511;50.890;8.054;2022-11-20T02:29:57;2.80;99.90
8953;DHT22;4511;50.890;8.054;2022-11-20T02:32:28;2.80;99.90
8953;DHT22;4511;50.890;8.054;2022-11-20T02:34:55;2.70;99.90
8953;DHT22;4511;50.890;8.054;2022-11-20T02:37:23;2.60;99.90
8953;DHT22;4511;50.890;8.054;2022-11-20T02:39:54;2.40;99.90
8953;DHT22;4511;50.890;8.054;2022-11-20T02:42:22;2.40;99.90
8953;DHT22;4511;50.890;8.054;2022-11-20T02:44:48;2.50;99.90
8953;DHT22;4511;50.890;8.054;2022-11-20T02:47:15;2.40;99.90
8953;DHT22;4511;50.890;8.054;2022-11-20T02:49:42;2.50;99.90
8953;DHT22;4511;50.890;8.054;2022-11-20T02:52:09;2.60;99.90
8953;DHT22;4511;50.890;8.054;2022-11-20T02:54:35;2.70;99.90
8953;DHT22;4511;50.890;8.054;2022-11-20T02:57:02;2.80;99.90
8953;DHT22;4511;50.890;8.054;2022-11-20T02:59:30;2.80;99.90
8953;DHT22;4511;50.890;8.054;2022-11-20T03:01:57;2.70;99.90
8953;DHT22;4511;50.890;8.054;2022-11-20T03:04:24;2.60;99.90
8953;DHT22;4511;50.890;8.054;2022-11-20T03:06:50;2.70;99.90
8953;DHT22;4511;50.890;8.054;2022-11-20T03:09:17;2.80;99.90
8953;DHT22;4511;50.890;8.054;2022-11-20T03:11:44;2.80;99.90
8953;DHT22;4511;50.890;8.054;2022-11-20T03:14:11;2.90;99.90
8953;DHT22;4511;50.890;8.054;2022-11-20T03:16:39;2.90;99.90
8953;DHT22;4511;50.890;8.054;2022-11-20T03:19:06;3.00;99.90
8953;DHT22;4511;50.890;8.054;2022-11-20T03:21:33;3.00;99.90
8953;DHT22;4511;50.890;8.054;2022-11-20T03:24:00;3.10;99.90
8953;DHT22;4511;50.890;8.054;2022-11-20T03:26:27;3.10;99.90
8953;DHT22;4511;50.890;8.054;2022-11-20T03:28:55;3.10;99.90
8953;DHT22;4511;50.890;8.054;2022-11-20T03:31:24;3.10;99.90
8953;DHT22;4511;50.890;8.054;2022-11-20T03:33:55;3.10;99.90
8953;DHT22;4511;50.890;8.054;2022-11-20T03:36:23;3.10;99.90
8953;DHT22;4511;50.890;8.054;2022-11-20T03:38:50;3.10;99.90
8953;DHT22;4511;50.890;8.054;2022-11-20T03:41:18;3.10;99.90
8953;DHT22;4511;50.890;8.054;2022-11-20T03:43:48;3.10;99.90
8953;DHT22;4511;50.890;8.054;2022-11-20T03:46:15;3.00;99.90
8953;DHT22;4511;50.890;8.054;2022-11-20T03:48:42;2.80;99.90
8953;DHT22;4511;50.890;8.054;2022-11-20T03:51:12;2.80;99.90
8953;DHT22;4511;50.890;8.054;2022-11-20T03:53:39;2.80;99.90
8953;DHT22;4511;50.890;8.054;2022-11-20T03:56:07;2.90;99.90
8953;DHT22;4511;50.890;8.054;2022-11-20T03:58:35;2.90;99.90
8953;DHT22;4511;50.890;8.054;2022-11-20T04:01:06;2.70;99.90
8953;DHT22;4511;50.890;8.054;2022-11-20T04:03:34;2.80;99.90
8953;DHT22;4511;50.890;8.054;2022-11-20T04:06:03;2.90;99.90
8953;DHT22;4511;50.890;8.054;2022-11-20T04:08:32;2.90;99.90
8953;DHT22;4511;50.890;8.054;2022-11-20T04:11:09;3.00;99.90
8953;DHT22;4511;50.890;8.054;2022-11-20T04:13:36;3.10;99.90
8953;DHT22;4511;50.890;8.054;2022-11-20T04:16:03;3.10;99.90
8953;DHT22;4511;50.890;8.054;2022-11-20T04:18:30;3.10;99.90
8953;DHT22;4511;50.890;8.054;2022-11-20T04:20:57;3.20;99.90
8953;DHT22;4511;50.890;8.054;2022-11-20T04:23:24;3.10;99.90
8953;DHT22;4511;50.890;8.054;2022-11-20T04:25:53;3.10;99.90
8953;DHT22;4511;50.890;8.054;2022-11-20T04:28:19;3.10;99.90
8953;DHT22;4511;50.890;8.054;2022-11-20T04:30:46;3.10;99.90
8953;DHT22;4511;50.890;8.054;2022-11-20T04:33:13;3.10;99.90
8953;DHT22;4511;50.890;8.054;2022-11-20T04:35:39;3.10;99.90
8953;DHT22;4511;50.890;8.054;2022-11-20T04:38:06;3.10;99.90
8953;DHT22;4511;50.890;8.054;2022-11-20T04:40:33;3.10;99.90
8953;DHT22;4511;50.890;8.054;2022-11-20T04:43:01;3.10;99.90
8953;DHT22;4511;50.890;8.054;2022-11-20T04:45:28;3.20;99.90
8953;DHT22;4511;50.890;8.054;2022-11-20T04:47:54;3.20;99.90
8953;DHT22;4511;50.890;8.054;2022-11-20T04:50:22;3.30;99.90
8953;DHT22;4511;50.890;8.054;2022-11-20T04:52:49;3.20;99.90
8953;DHT22;4511;50.890;8.054;2022-11-20T04:55:16;3.20;99.90
8953;DHT22;4511;50.890;8.054;2022-11-20T04:57:42;3.20;99.90
8953;DHT22;4511;50.890;8.054;2022-11-20T05:00:12;3.20;99.90
8953;DHT22;4511;50.890;8.054;2022-11-20T05:02:39;3.20;99.90
8953;DHT22;4511;50.890;8.054;2022-11-20T05:05:06;3.20;99.90
8953;DHT22;4511;50.890;8.054;2022-11-20T05:07:33;3.20;99.90
8953;DHT22;4511;50.890;8.054;2022-11-20T05:10:00;3.20;99.90
8953;DHT22;4511;50.890;8.054;2022-11-20T05:12:26;3.20;99.90
8953;DHT22;4511;50.890;8.054;2022-11-20T05:14:54;3.20;99.90
8953;DHT22;4511;50.890;8.054;2022-11-20T05:17:22;3.10;99.90
8953;DHT22;4511;50.890;8.054;2022-11-20T05:19:49;3.00;99.90
8953;DHT22;4511;50.890;8.054;2022-11-20T05:22:16;3.10;99.90
8953;DHT22;4511;50.890;8.054;2022-11-20T05:24:43;3.10;99.90
8953;DHT22;4511;50.890;8.054;2022-11-20T05:27:10;3.10;99.90
8953;DHT22;4511;50.890;8.054;2022-11-20T05:29:36;3.10;99.90
8953;DHT22;4511;50.890;8.054;2022-11-20T05:32:03;3.20;99.90
8953;DHT22;4511;50.890;8.054;2022-11-20T05:34:34;3.10;99.90
8953;DHT22;4511;50.890;8.054;2022-11-20T05:37:00;3.10;99.90
8953;DHT22;4511;50.890;8.054;2022-11-20T05:39:27;3.10;99.90
8953;DHT22;4511;50.890;8.054;2022-11-20T05:41:54;3.10;99.90
8953;DHT22;4511;50.890;8.054;2022-11-20T05:44:35;3.10;99.90
8953;DHT22;4511;50.890;8.054;2022-11-20T05:47:02;3.10;99.90
8953;DHT22;4511;50.890;8.054;2022-11-20T05:49:28;3.10;99.90
8953;DHT22;4511;50.890;8.054;2022-11-20T05:51:57;3.10;99.90
8953;DHT22;4511;50.890;8.054;2022-11-20T05:54:24;3.10;99.90
8953;DHT22;4511;50.890;8.054;2022-11-20T05:56:51;3.10;99.90
8953;DHT22;4511;50.890;8.054;2022-11-20T05:59:18;3.10;99.90
8953;DHT22;4511;50.890;8.054;2022-11-20T06:01:44;3.10;99.90
8953;DHT22;4511;50.890;8.054;2022-11-20T06:04:11;3.10;99.90
8953;DHT22;4511;50.890;8.054;2022-11-20T06:06:39;3.10;99.90
8953;DHT22;4511;50.890;8.054;2022-11-20T06:09:08;3.10;99.90
8953;DHT22;4511;50.890;8.054;2022-11-20T06:11:34;3.10;99.90
8953;DHT22;4511;50.890;8.054;2022-11-20T06:14:01;3.10;99.90
8953;DHT22;4511;50.890;8.054;2022-11-20T06:16:28;3.20;99.90
8953;DHT22;4511;50.890;8.054;2022-11-20T06:18:55;3.10;99.90
8953;DHT22;4511;50.890;8.054;2022-11-20T06:21:22;3.20;99.90
8953;DHT22;4511;50.890;8.054;2022-11-20T06:23:50;3.10;99.90
8953;DHT22;4511;50.890;8.054;2022-11-20T06:26:21;3.10;99.90
8953;DHT22;4511;50.890;8.054;2022-11-20T06:28:50;3.10;99.90
8953;DHT22;4511;50.890;8.054;2022-11-20T06:31:19;3.10;99.90
8953;DHT22;4511;50.890;8.054;2022-11-20T06:33:46;3.20;99.90
8953;DHT22;4511;50.890;8.054;2022-11-20T06:36:15;3.20;99.90
8953;DHT22;4511;50.890;8.054;2022-11-20T06:38:42;3.20;99.90
8953;DHT22;4511;50.890;8.054;2022-11-20T06:41:11;3.20;99.90
8953;DHT22;4511;50.890;8.054;2022-11-20T06:43:41;3.10;99.90
8953;DHT22;4511;50.890;8.054;2022-11-20T06:46:09;3.10;99.90
8953;DHT22;4511;50.890;8.054;2022-11-20T06:48:36;3.20;99.90
8953;DHT22;4511;50.890;8.054;2022-11-20T06:51:04;3.20;99.90
8953;DHT22;4511;50.890;8.054;2022-11-20T06:53:31;3.10;99.90
8953;DHT22;4511;50.890;8.054;2022-11-20T06:55:58;3.20;99.90
8953;DHT22;4511;50.890;8.054;2022-11-20T06:58:27;3.10;99.90
8953;DHT22;4511;50.890;8.054;2022-11-20T07:00:59;3.10;99.90
8953;DHT22;4511;50.890;8.054;2022-11-20T07:03:25;3.20;99.90
8953;DHT22;4511;50.890;8.054;2022-11-20T07:05:54;3.20;99.90
8953;DHT22;4511;50.890;8.054;2022-11-20T07:08:21;3.10;99.90
8953;DHT22;4511;50.890;8.054;2022-11-20T07:10:48;3.10;99.90
8953;DHT22;4511;50.890;8.054;2022-11-20T07:13:15;3.10;99.90
8953;DHT22;4511;50.890;8.054;2022-11-20T07:15:41;3.20;99.90
8953;DHT22;4511;50.890;8.054;2022-11-20T07:18:10;3.30;99.90
8953;DHT22;4511;50.890;8.054;2022-11-20T07:20:36;3.30;99.90
8953;DHT22;4511;50.890;8.054;2022-11-20T07:23:03;3.30;99.90
8953;DHT22;4511;50.890;8.054;2022-11-20T07:25:30;3.30;99.90
8953;DHT22;4511;50.890;8.054;2022-11-20T07:27:57;3.20;99.90
8953;DHT22;4511;50.890;8.054;2022-11-20T07:30:24;3.20;99.90
8953;DHT22;4511;50.890;8.054;2022-11-20T07:32:52;3.30;99.90
8953;DHT22;4511;50.890;8.054;2022-11-20T07:35:20;3.20;99.90
8953;DHT22;4511;50.890;8.054;2022-11-20T07:37:47;3.20;99.90
8953;DHT22;4511;50.890;8.054;2022-11-20T07:40:14;3.30;99.90
8953;DHT22;4511;50.890;8.054;2022-11-20T07:42:47;3.30;99.90
8953;DHT22;4511;50.890;8.054;2022-11-20T07:45:14;3.40;99.90
8953;DHT22;4511;50.890;8.054;2022-11-20T07:47:41;3.40;99.90
8953;DHT22;4511;50.890;8.054;2022-11-20T07:50:09;3.40;99.90
8953;DHT22;4511;50.890;8.054;2022-11-20T07:52:37;3.40;99.90
8953;DHT22;4511;50.890;8.054;2022-11-20T07:55:04;3.50;99.90
8953;DHT22;4511;50.890;8.054;2022-11-20T07:57:31;3.50;99.90
8953;DHT22;4511;50.890;8.054;2022-11-20T07:59:58;3.50;99.90
8953;DHT22;4511;50.890;8.054;2022-11-20T08:02:25;3.50;99.90
8953;DHT22;4511;50.890;8.054;2022-11-20T08:04:52;3.60;99.90
8953;DHT22;4511;50.890;8.054;2022-11-20T08:07:19;3.50;99.90
8953;DHT22;4511;50.890;8.054;2022-11-20T08:09:47;3.60;99.90
8953;DHT22;4511;50.890;8.054;2022-11-20T08:12:17;3.50;99.90
8953;DHT22;4511;50.890;8.054;2022-11-20T08:15:03;3.30;99.90
8953;DHT22;4511;50.890;8.054;2022-11-20T08:17:30;3.40;99.90
8953;DHT22;4511;50.890;8.054;2022-11-20T08:19:57;3.20;99.90
8953;DHT22;4511;50.890;8.054;2022-11-20T08:22:23;3.30;99.90
8953;DHT22;4511;50.890;8.054;2022-11-20T08:24:52;3.40;99.90
8953;DHT22;4511;50.890;8.054;2022-11-20T08:27:19;3.50;99.90
8953;DHT22;4511;50.890;8.054;2022-11-20T08:29:45;3.40;99.90
8953;DHT22;4511;50.890;8.054;2022-11-20T08:32:12;3.40;99.90
8953;DHT22;4511;50.890;8.054;2022-11-20T08:34:39;3.40;99.90
8953;DHT22;4511;50.890;8.054;2022-11-20T08:37:05;3.50;99.90
8953;DHT22;4511;50.890;8.054;2022-11-20T08:39:33;3.60;99.90
8953;DHT22;4511;50.890;8.054;2022-11-20T08:42:01;3.60;99.90
8953;DHT22;4511;50.890;8.054;2022-11-20T08:44:28;3.60;99.90
8953;DHT22;4511;50.890;8.054;2022-11-20T08:46:55;3.50;99.90
8953;DHT22;4511;50.890;8.054;2022-11-20T08:49:22;3.60;99.90
8953;DHT22;4511;50.890;8.054;2022-11-20T08:51:49;3.60;99.90
8953;DHT22;4511;50.890;8.054;2022-11-20T08:54:19;3.70;99.90
8953;DHT22;4511;50.890;8.054;2022-11-20T08:56:48;3.70;99.90
8953;DHT22;4511;50.890;8.054;2022-11-20T08:59:16;3.80;99.90
8953;DHT22;4511;50.890;8.054;2022-11-20T09:01:42;3.90;99.90
8953;DHT22;4511;50.890;8.054;2022-11-20T09:04:09;3.80;99.90
8953;DHT22;4511;50.890;8.054;2022-11-20T09:06:37;3.90;99.90
8953;DHT22;4511;50.890;8.054;2022-11-20T09:09:03;3.90;99.90
8953;DHT22;4511;50.890;8.054;2022-11-20T09:11:31;4.00;99.90
8953;DHT22;4511;50.890;8.054;2022-11-20T09:13:57;4.10;99.90
8953;DHT22;4511;50.890;8.054;2022-11-20T09:16:26;4.20;99.90
8953;DHT22;4511;50.890;8.054;2022-11-20T09:18:53;4.20;99.90
8953;DHT22;4511;50.890;8.054;2022-11-20T09:21:20;4.30;99.90
8953;DHT22;4511;50.890;8.054;2022-11-20T09:23:48;4.30;99.90
8953;DHT22;4511;50.890;8.054;2022-11-20T09:26:15;4.40;99.90
8953;DHT22;4511;50.890;8.054;2022-11-20T09:28:41;4.30;99.90
8953;DHT22;4511;50.890;8.054;2022-11-20T09:31:09;4.40;99.90
8953;DHT22;4511;50.890;8.054;2022-11-20T09:33:42;4.20;99.90
8953;DHT22;4511;50.890;8.054;2022-11-20T09:36:09;4.00;99.90
8953;DHT22;4511;50.890;8.054;2022-11-20T09:38:36;4.20;99.90
8953;DHT22;4511;50.890;8.054;2022-11-20T09:41:04;4.20;99.90
8953;DHT22;4511;50.890;8.054;2022-11-20T09:43:41;4.30;99.90
8953;DHT22;4511;50.890;8.054;2022-11-20T09:46:14;4.20;99.90
8953;DHT22;4511;50.890;8.054;2022-11-20T09:48:52;4.00;99.90
8953;DHT22;4511;50.890;8.054;2022-11-20T09:51:30;3.90;99.90
8953;DHT22;4511;50.890;8.054;2022-11-20T09:54:09;4.00;99.90
8953;DHT22;4511;50.890;8.054;2022-11-20T09:56:42;4.00;99.90
8953;DHT22;4511;50.890;8.054;2022-11-20T09:59:31;4.10;99.90
8953;DHT22;4511;50.890;8.054;2022-11-20T10:02:00;4.40;99.90
8953;DHT22;4511;50.890;8.054;2022-11-20T10:04:31;4.50;99.90
8953;DHT22;4511;50.890;8.054;2022-11-20T10:07:04;4.50;99.90
8953;DHT22;4511;50.890;8.054;2022-11-20T10:09:36;4.40;99.90
8953;DHT22;4511;50.890;8.054;2022-11-20T10:12:14;4.30;99.90
8953;DHT22;4511;50.890;8.054;2022-11-20T10:14:56;4.40;99.90
8953;DHT22;4511;50.890;8.054;2022-11-20T10:17:33;4.40;99.90
8953;DHT22;4511;50.890;8.054;2022-11-20T10:20:17;4.40;99.90
8953;DHT22;4511;50.890;8.054;2022-11-20T10:22:56;4.40;99.90
8953;DHT22;4511;50.890;8.054;2022-11-20T10:25:36;4.50;99.90
8953;DHT22;4511;50.890;8.054;2022-11-20T10:28:17;4.60;99.90
8953;DHT22;4511;50.890;8.054;2022-11-20T10:30:51;5.10;99.90
8953;DHT22;4511;50.890;8.054;2022-11-20T10:33:21;5.10;99.90
8953;DHT22;4511;50.890;8.054;2022-11-20T10:35:55;5.00;99.90
8953;DHT22;4511;50.890;8.054;2022-11-20T10:38:26;4.80;99.90
8953;DHT22;4511;50.890;8.054;2022-11-20T10:40:58;4.70;99.90
8953;DHT22;4511;50.890;8.054;2022-11-20T10:43:46;5.00;99.90
8953;DHT22;4511;50.890;8.054;2022-11-20T10:46:16;4.80;99.90
8953;DHT22;4511;50.890;8.054;2022-11-20T10:48:44;5.00;99.90
8953;DHT22;4511;50.890;8.054;2022-11-20T10:51:21;5.10;99.90
8953;DHT22;4511;50.890;8.054;2022-11-20T10:54:00;5.00;99.90
8953;DHT22;4511;50.890;8.054;2022-11-20T10:56:38;4.90;99.90
8953;DHT22;4511;50.890;8.054;2022-11-20T10:59:28;5.00;99.90
8953;DHT22;4511;50.890;8.054;2022-11-20T11:01:59;5.00;99.90
8953;DHT22;4511;50.890;8.054;2022-11-20T11:04:33;5.00;99.90
8953;DHT22;4511;50.890;8.054;2022-11-20T11:07:09;5.10;99.90
8953;DHT22;4511;50.890;8.054;2022-11-20T11:09:41;5.10;99.90
8953;DHT22;4511;50.890;8.054;2022-11-20T11:12:09;5.10;99.90
8953;DHT22;4511;50.890;8.054;2022-11-20T11:14:44;5.50;99.90
8953;DHT22;4511;50.890;8.054;2022-11-20T11:17:26;5.30;99.90
8953;DHT22;4511;50.890;8.054;2022-11-20T11:19:58;5.30;99.90
8953;DHT22;4511;50.890;8.054;2022-11-20T11:22:28;5.30;99.90
8953;DHT22;4511;50.890;8.054;2022-11-20T11:24:55;5.30;99.90
8953;DHT22;4511;50.890;8.054;2022-11-20T11:27:22;5.30;99.90
8953;DHT22;4511;50.890;8.054;2022-11-20T11:29:49;5.20;99.90
8953;DHT22;4511;50.890;8.054;2022-11-20T11:32:18;5.20;99.90
8953;DHT22;4511;50.890;8.054;2022-11-20T11:34:59;5.30;99.90
8953;DHT22;4511;50.890;8.054;2022-11-20T11:37:32;5.20;99.90
8953;DHT22;4511;50.890;8.054;2022-11-20T11:40:01;5.10;99.90
8953;DHT22;4511;50.890;8.054;2022-11-20T11:42:28;5.20;99.90
8953;DHT22;4511;50.890;8.054;2022-11-20T11:44:57;5.10;99.90
8953;DHT22;4511;50.890;8.054;2022-11-20T11:47:35;5.20;99.90
8953;DHT22;4511;50.890;8.054;2022-11-20T11:50:17;5.30;99.90
8953;DHT22;4511;50.890;8.054;2022-11-20T11:52:51;5.50;99.90
8953;DHT22;4511;50.890;8.054;2022-11-20T11:55:28;5.50;99.90
8953;DHT22;4511;50.890;8.054;2022-11-20T11:58:05;5.50;99.90
8953;DHT22;4511;50.890;8.054;2022-11-20T12:00:35;5.50;99.90
8953;DHT22;4511;50.890;8.054;2022-11-20T12:03:07;5.50;99.90
8953;DHT22;4511;50.890;8.054;2022-11-20T12:05:40;5.50;99.90
8953;DHT22;4511;50.890;8.054;2022-11-20T12:08:16;5.50;99.90
8953;DHT22;4511;50.890;8.054;2022-11-20T12:10:49;5.50;99.90
8953;DHT22;4511;50.890;8.054;2022-11-20T12:13:40;5.50;99.90
8953;DHT22;4511;50.890;8.054;2022-11-20T12:16:12;5.50;99.90
8953;DHT22;4511;50.890;8.054;2022-11-20T12:18:40;5.50;99.90
8953;DHT22;4511;50.890;8.054;2022-11-20T12:21:20;5.40;99.90
8953;DHT22;4511;50.890;8.054;2022-11-20T12:24:05;5.40;99.90
8953;DHT22;4511;50.890;8.054;2022-11-20T12:26:45;5.30;99.90
8953;DHT22;4511;50.890;8.054;2022-11-20T12:29:20;5.20;99.90
8953;DHT22;4511;50.890;8.054;2022-11-20T12:31:59;5.30;99.90
8953;DHT22;4511;50.890;8.054;2022-11-20T12:34:44;5.30;99.90
8953;DHT22;4511;50.890;8.054;2022-11-20T12:37:23;5.30;99.90
8953;DHT22;4511;50.890;8.054;2022-11-20T12:39:58;5.20;99.90
8953;DHT22;4511;50.890;8.054;2022-11-20T12:42:39;5.20;99.90
8953;DHT22;4511;50.890;8.054;2022-11-20T12:45:58;5.20;99.90
8953;DHT22;4511;50.890;8.054;2022-11-20T12:48:46;5.30;99.90
8953;DHT22;4511;50.890;8.054;2022-11-20T12:51:40;5.20;99.90
8953;DHT22;4511;50.890;8.054;2022-11-20T12:54:42;5.20;99.90
8953;DHT22;4511;50.890;8.054;2022-11-20T12:57:18;5.20;99.90
8953;DHT22;4511;50.890;8.054;2022-11-20T13:00:01;5.20;99.90
8953;DHT22;4511;50.890;8.054;2022-11-20T13:02:35;5.20;99.90
8953;DHT22;4511;50.890;8.054;2022-11-20T13:05:17;5.20;99.90
8953;DHT22;4511;50.890;8.054;2022-11-20T13:07:45;5.20;99.90
8953;DHT22;4511;50.890;8.054;2022-11-20T13:10:18;5.20;99.90
8953;DHT22;4511;50.890;8.054;2022-11-20T13:12:50;5.30;99.90
8953;DHT22;4511;50.890;8.054;2022-11-20T13:15:33;5.20;99.90
8953;DHT22;4511;50.890;8.054;2022-11-20T13:18:04;5.20;99.90
8953;DHT22;4511;50.890;8.054;2022-11-20T13:20:33;5.30;99.90
8953;DHT22;4511;50.890;8.054;2022-11-20T13:23:00;5.30;99.90
8953;DHT22;4511;50.890;8.054;2022-11-20T13:25:28;5.30;99.90
8953;DHT22;4511;50.890;8.054;2022-11-20T13:27:58;5.40;99.90
8953;DHT22;4511;50.890;8.054;2022-11-20T13:30:26;5.40;99.90
8953;DHT22;4511;50.890;8.054;2022-11-20T13:32:55;5.40;99.90
8953;DHT22;4511;50.890;8.054;2022-11-20T13:35:30;5.40;99.90
8953;DHT22;4511;50.890;8.054;2022-11-20T13:38:03;5.40;99.90
8953;DHT22;4511;50.890;8.054;2022-11-20T13:40:30;5.40;99.90
8953;DHT22;4511;50.890;8.054;2022-11-20T13:43:10;5.50;99.90
8953;DHT22;4511;50.890;8.054;2022-11-20T13:45:41;5.40;99.90
8953;DHT22;4511;50.890;8.054;2022-11-20T13:48:20;5.50;99.90
8953;DHT22;4511;50.890;8.054;2022-11-20T13:50:56;5.50;99.90
8953;DHT22;4511;50.890;8.054;2022-11-20T13:53:35;5.50;99.90
8953;DHT22;4511;50.890;8.054;2022-11-20T13:56:14;5.40;99.90
8953;DHT22;4511;50.890;8.054;2022-11-20T13:58:50;5.50;99.90
8953;DHT22;4511;50.890;8.054;2022-11-20T14:01:20;5.40;99.90
8953;DHT22;4511;50.890;8.054;2022-11-20T14:03:48;5.40;99.90
8953;DHT22;4511;50.890;8.054;2022-11-20T14:06:23;5.40;99.90
8953;DHT22;4511;50.890;8.054;2022-11-20T14:08:53;5.30;99.90
8953;DHT22;4511;50.890;8.054;2022-11-20T14:11:21;5.30;99.90
8953;DHT22;4511;50.890;8.054;2022-11-20T14:13:56;5.20;99.90
8953;DHT22;4511;50.890;8.054;2022-11-20T14:16:26;5.30;99.90
8953;DHT22;4511;50.890;8.054;2022-11-20T14:18:53;5.60;99.90
8953;DHT22;4511;50.890;8.054;2022-11-20T14:21:23;5.60;99.90
8953;DHT22;4511;50.890;8.054;2022-11-20T14:23:52;5.60;99.90
8953;DHT22;4511;50.890;8.054;2022-11-20T14:26:19;5.50;99.90
8953;DHT22;4511;50.890;8.054;2022-11-20T14:28:49;5.40;99.90
8953;DHT22;4511;50.890;8.054;2022-11-20T14:31:22;5.40;99.90
8953;DHT22;4511;50.890;8.054;2022-11-20T14:33:50;5.40;99.90
8953;DHT22;4511;50.890;8.054;2022-11-20T14:36:18;5.30;99.90
8953;DHT22;4511;50.890;8.054;2022-11-20T14:38:46;5.30;99.90
8953;DHT22;4511;50.890;8.054;2022-11-20T14:41:17;5.30;99.90
8953;DHT22;4511;50.890;8.054;2022-11-20T14:43:46;5.30;99.90
8953;DHT22;4511;50.890;8.054;2022-11-20T14:46:14;5.30;99.90
8953;DHT22;4511;50.890;8.054;2022-11-20T14:48:45;5.40;99.90
8953;DHT22;4511;50.890;8.054;2022-11-20T14:51:25;5.40;99.90
8953;DHT22;4511;50.890;8.054;2022-11-20T14:53:53;5.40;99.90
8953;DHT22;4511;50.890;8.054;2022-11-20T14:56:22;5.40;99.90
8953;DHT22;4511;50.890;8.054;2022-11-20T14:58:55;5.40;99.90
8953;DHT22;4511;50.890;8.054;2022-11-20T15:01:26;5.40;99.90
8953;DHT22;4511;50.890;8.054;2022-11-20T15:04:00;5.30;99.90
8953;DHT22;4511;50.890;8.054;2022-11-20T15:06:27;5.40;99.90
8953;DHT22;4511;50.890;8.054;2022-11-20T15:08:55;5.40;99.90
8953;DHT22;4511;50.890;8.054;2022-11-20T15:11:27;5.40;99.90
8953;DHT22;4511;50.890;8.054;2022-11-20T15:13:55;5.30;99.90
8953;DHT22;4511;50.890;8.054;2022-11-20T15:16:22;5.30;99.90
8953;DHT22;4511;50.890;8.054;2022-11-20T15:18:50;5.20;99.90
8953;DHT22;4511;50.890;8.054;2022-11-20T15:21:19;5.20;99.90
8953;DHT22;4511;50.890;8.054;2022-11-20T15:23:46;5.20;99.90
8953;DHT22;4511;50.890;8.054;2022-11-20T15:26:15;5.30;99.90
8953;DHT22;4511;50.890;8.054;2022-11-20T15:28:45;5.30;99.90
8953;DHT22;4511;50.890;8.054;2022-11-20T15:31:15;5.40;99.90
8953;DHT22;4511;50.890;8.054;2022-11-20T15:33:42;5.40;99.90
8953;DHT22;4511;50.890;8.054;2022-11-20T15:36:09;5.40;99.90
8953;DHT22;4511;50.890;8.054;2022-11-20T15:38:38;5.40;99.90
8953;DHT22;4511;50.890;8.054;2022-11-20T15:41:05;5.40;99.90
8953;DHT22;4511;50.890;8.054;2022-11-20T15:43:32;5.50;99.90
8953;DHT22;4511;50.890;8.054;2022-11-20T15:46:00;5.40;99.90
8953;DHT22;4511;50.890;8.054;2022-11-20T15:48:31;5.40;99.90
8953;DHT22;4511;50.890;8.054;2022-11-20T15:51:02;5.40;99.90
8953;DHT22;4511;50.890;8.054;2022-11-20T15:53:31;5.50;99.90
8953;DHT22;4511;50.890;8.054;2022-11-20T15:55:59;5.50;99.90
8953;DHT22;4511;50.890;8.054;2022-11-20T15:58:27;5.40;99.90
8953;DHT22;4511;50.890;8.054;2022-11-20T16:00:53;5.40;99.90
8953;DHT22;4511;50.890;8.054;2022-11-20T16:03:20;5.40;99.90
8953;DHT22;4511;50.890;8.054;2022-11-20T16:05:47;5.40;99.90
8953;DHT22;4511;50.890;8.054;2022-11-20T16:08:14;5.50;99.90
8953;DHT22;4511;50.890;8.054;2022-11-20T16:10:41;5.50;99.90
8953;DHT22;4511;50.890;8.054;2022-11-20T16:13:13;5.60;99.90
8953;DHT22;4511;50.890;8.054;2022-11-20T16:15:59;5.60;99.90
8953;DHT22;4511;50.890;8.054;2022-11-20T16:18:27;5.60;99.90
8953;DHT22;4511;50.890;8.054;2022-11-20T16:20:55;5.60;99.90
8953;DHT22;4511;50.890;8.054;2022-11-20T16:23:23;5.60;99.90
8953;DHT22;4511;50.890;8.054;2022-11-20T16:25:51;5.60;99.90
8953;DHT22;4511;50.890;8.054;2022-11-20T16:28:19;5.70;99.90
8953;DHT22;4511;50.890;8.054;2022-11-20T16:30:46;5.70;99.90
8953;DHT22;4511;50.890;8.054;2022-11-20T16:33:14;5.70;99.90
8953;DHT22;4511;50.890;8.054;2022-11-20T16:35:42;5.70;99.90